Terminal Aerodrome Forecast
Issued by NWS Twin Cities, MN

Home | Current Version | Previous Version | Graphics & Text | Print | Product List | Glossary On
Versions: 1 2 3 4 5 6 7 8 9 10 11 12 13 14 15 16 17 18
000
FTUS43 KMPX 281120
TAFSTC
TAF
KSTC 281120Z 2812/2912 16007KT P6SM FEW120 BKN250
      TEMPO 2812/2813 5SM BR
     FM281400 17013G20KT P6SM SCT100 BKN250
     FM281700 18016G28KT P6SM FEW050 BKN150
     FM290100 18009KT P6SM SCT050 BKN090
     FM290400 17007KT P6SM VCSH BKN050
     FM290600 17005KT P6SM -SHRA BKN020 OVC040=

USA.gov is the U.S. government's official web portal to all federal, state and local government web resources and services.